sensor_id;sensor_type;location;lat;lon;timestamp;P1;durP1;ratioP1;P2;durP2;ratioP2
45252;SDS011;63171;50.520;30.486;2023-04-25T00:03:25;6.90;;;3.90;;
45252;SDS011;63171;50.520;30.486;2023-04-25T00:04:16;7.88;;;4.10;;
45252;SDS011;63171;50.520;30.486;2023-04-25T00:05:06;4.18;;;3.83;;
45252;SDS011;63171;50.520;30.486;2023-04-25T00:05:58;5.54;;;4.22;;
45252;SDS011;63171;50.520;30.486;2023-04-25T00:06:51;4.66;;;4.20;;
45252;SDS011;63171;50.520;30.486;2023-04-25T00:07:42;6.08;;;4.00;;
45252;SDS011;63171;50.520;30.486;2023-04-25T00:08:32;6.35;;;4.40;;
45252;SDS011;63171;50.520;30.486;2023-04-25T00:09:23;6.38;;;4.34;;
45252;SDS011;63171;50.520;30.486;2023-04-25T00:10:12;5.72;;;5.20;;
45252;SDS011;63171;50.520;30.486;2023-04-25T00:11:03;8.22;;;4.88;;
45252;SDS011;63171;50.520;30.486;2023-04-25T00:11:54;5.92;;;4.82;;
45252;SDS011;63171;50.520;30.486;2023-04-25T00:12:44;6.34;;;4.50;;
45252;SDS011;63171;50.520;30.486;2023-04-25T00:13:34;8.60;;;5.15;;
45252;SDS011;63171;50.520;30.486;2023-04-25T00:14:25;8.58;;;4.64;;
45252;SDS011;63171;50.520;30.486;2023-04-25T00:15:15;8.82;;;4.35;;
45252;SDS011;63171;50.520;30.486;2023-04-25T00:16:07;7.54;;;4.78;;
45252;SDS011;63171;50.520;30.486;2023-04-25T00:16:57;6.15;;;5.15;;
45252;SDS011;63171;50.520;30.486;2023-04-25T00:17:47;6.22;;;4.48;;
45252;SDS011;63171;50.520;30.486;2023-04-25T00:18:39;5.05;;;4.53;;
45252;SDS011;63171;50.520;30.486;2023-04-25T00:19:29;6.56;;;5.00;;
45252;SDS011;63171;50.520;30.486;2023-04-25T00:20:19;7.55;;;5.07;;
45252;SDS011;63171;50.520;30.486;2023-04-25T00:21:10;5.86;;;4.46;;
45252;SDS011;63171;50.520;30.486;2023-04-25T00:22:00;9.52;;;4.57;;
45252;SDS011;63171;50.520;30.486;2023-04-25T00:22:52;6.95;;;4.38;;
45252;SDS011;63171;50.520;30.486;2023-04-25T00:23:42;8.95;;;5.70;;
45252;SDS011;63171;50.520;30.486;2023-04-25T00:24:34;6.28;;;4.76;;
45252;SDS011;63171;50.520;30.486;2023-04-25T00:25:24;10.57;;;5.75;;
45252;SDS011;63171;50.520;30.486;2023-04-25T00:26:15;6.46;;;4.68;;
45252;SDS011;63171;50.520;30.486;2023-04-25T00:27:05;5.22;;;4.03;;
45252;SDS011;63171;50.520;30.486;2023-04-25T00:27:55;11.30;;;5.30;;
45252;SDS011;63171;50.520;30.486;2023-04-25T00:28:45;6.15;;;4.47;;
45252;SDS011;63171;50.520;30.486;2023-04-25T00:29:36;11.36;;;5.60;;
45252;SDS011;63171;50.520;30.486;2023-04-25T00:30:26;8.88;;;5.22;;
45252;SDS011;63171;50.520;30.486;2023-04-25T00:31:17;9.20;;;5.57;;
45252;SDS011;63171;50.520;30.486;2023-04-25T00:32:07;8.50;;;6.03;;
45252;SDS011;63171;50.520;30.486;2023-04-25T00:32:58;10.16;;;5.68;;
45252;SDS011;63171;50.520;30.486;2023-04-25T00:33:49;9.82;;;6.07;;
45252;SDS011;63171;50.520;30.486;2023-04-25T00:34:40;7.48;;;6.10;;
45252;SDS011;63171;50.520;30.486;2023-04-25T00:35:30;7.47;;;5.88;;
45252;SDS011;63171;50.520;30.486;2023-04-25T00:36:21;8.02;;;6.68;;
45252;SDS011;63171;50.520;30.486;2023-04-25T00:37:10;8.63;;;6.40;;
45252;SDS011;63171;50.520;30.486;2023-04-25T00:38:02;7.60;;;5.22;;
45252;SDS011;63171;50.520;30.486;2023-04-25T00:38:52;9.60;;;6.28;;
45252;SDS011;63171;50.520;30.486;2023-04-25T00:39:43;7.32;;;5.94;;
45252;SDS011;63171;50.520;30.486;2023-04-25T00:40:33;5.63;;;4.50;;
45252;SDS011;63171;50.520;30.486;2023-04-25T00:41:26;7.08;;;5.08;;
45252;SDS011;63171;50.520;30.486;2023-04-25T00:43:55;6.72;;;5.26;;
45252;SDS011;63171;50.520;30.486;2023-04-25T00:44:47;9.18;;;6.22;;
45252;SDS011;63171;50.520;30.486;2023-04-25T00:45:38;9.43;;;6.93;;
45252;SDS011;63171;50.520;30.486;2023-04-25T00:46:30;9.52;;;6.70;;
45252;SDS011;63171;50.520;30.486;2023-04-25T00:47:20;9.28;;;6.48;;
45252;SDS011;63171;50.520;30.486;2023-04-25T00:48:11;8.34;;;5.68;;
45252;SDS011;63171;50.520;30.486;2023-04-25T00:49:04;7.45;;;5.20;;
45252;SDS011;63171;50.520;30.486;2023-04-25T00:49:55;7.20;;;4.86;;
45252;SDS011;63171;50.520;30.486;2023-04-25T00:50:45;7.63;;;5.10;;
45252;SDS011;63171;50.520;30.486;2023-04-25T00:51:42;8.04;;;4.48;;
45252;SDS011;63171;50.520;30.486;2023-04-25T00:52:33;8.93;;;5.25;;
45252;SDS011;63171;50.520;30.486;2023-04-25T00:53:25;15.02;;;5.57;;
45252;SDS011;63171;50.520;30.486;2023-04-25T00:54:17;5.48;;;4.90;;
45252;SDS011;63171;50.520;30.486;2023-04-25T00:55:08;10.32;;;5.42;;
45252;SDS011;63171;50.520;30.486;2023-04-25T00:55:58;9.30;;;5.18;;
45252;SDS011;63171;50.520;30.486;2023-04-25T00:56:49;7.70;;;4.38;;
45252;SDS011;63171;50.520;30.486;2023-04-25T00:57:40;8.74;;;5.20;;
45252;SDS011;63171;50.520;30.486;2023-04-25T00:58:30;7.82;;;5.88;;
45252;SDS011;63171;50.520;30.486;2023-04-25T00:59:21;7.85;;;5.10;;
45252;SDS011;63171;50.520;30.486;2023-04-25T01:00:12;6.76;;;5.04;;
45252;SDS011;63171;50.520;30.486;2023-04-25T01:01:03;6.18;;;5.10;;
45252;SDS011;63171;50.520;30.486;2023-04-25T01:01:54;11.88;;;6.15;;
45252;SDS011;63171;50.520;30.486;2023-04-25T01:02:44;7.43;;;5.47;;
45252;SDS011;63171;50.520;30.486;2023-04-25T01:03:36;8.18;;;5.86;;
45252;SDS011;63171;50.520;30.486;2023-04-25T01:04:31;7.65;;;4.90;;
45252;SDS011;63171;50.520;30.486;2023-04-25T01:05:22;6.48;;;4.78;;
45252;SDS011;63171;50.520;30.486;2023-04-25T01:06:12;9.38;;;5.10;;
45252;SDS011;63171;50.520;30.486;2023-04-25T01:07:03;10.62;;;5.12;;
45252;SDS011;63171;50.520;30.486;2023-04-25T01:07:53;8.65;;;5.47;;
45252;SDS011;63171;50.520;30.486;2023-04-25T01:08:43;6.02;;;5.26;;
45252;SDS011;63171;50.520;30.486;2023-04-25T01:09:33;9.43;;;5.93;;
45252;SDS011;63171;50.520;30.486;2023-04-25T01:10:24;6.28;;;5.22;;
45252;SDS011;63171;50.520;30.486;2023-04-25T01:11:14;7.95;;;5.55;;
45252;SDS011;63171;50.520;30.486;2023-04-25T01:12:05;12.06;;;5.98;;
45252;SDS011;63171;50.520;30.486;2023-04-25T01:12:55;11.77;;;5.38;;
45252;SDS011;63171;50.520;30.486;2023-04-25T01:13:46;7.02;;;5.08;;
45252;SDS011;63171;50.520;30.486;2023-04-25T01:14:35;6.80;;;4.88;;
45252;SDS011;63171;50.520;30.486;2023-04-25T01:15:28;6.14;;;5.24;;
45252;SDS011;63171;50.520;30.486;2023-04-25T01:16:18;6.90;;;5.75;;
45252;SDS011;63171;50.520;30.486;2023-04-25T01:17:09;8.55;;;6.20;;
45252;SDS011;63171;50.520;30.486;2023-04-25T01:17:59;7.05;;;6.22;;
45252;SDS011;63171;50.520;30.486;2023-04-25T01:18:50;13.94;;;5.68;;
45252;SDS011;63171;50.520;30.486;2023-04-25T01:19:43;8.26;;;6.24;;
45252;SDS011;63171;50.520;30.486;2023-04-25T01:20:33;9.08;;;6.04;;
45252;SDS011;63171;50.520;30.486;2023-04-25T01:21:26;10.95;;;7.82;;
45252;SDS011;63171;50.520;30.486;2023-04-25T01:22:17;10.48;;;7.15;;
45252;SDS011;63171;50.520;30.486;2023-04-25T01:23:09;10.48;;;6.06;;
45252;SDS011;63171;50.520;30.486;2023-04-25T01:24:00;5.95;;;4.97;;
45252;SDS011;63171;50.520;30.486;2023-04-25T01:24:51;6.80;;;5.72;;
45252;SDS011;63171;50.520;30.486;2023-04-25T01:25:41;8.02;;;5.20;;
45252;SDS011;63171;50.520;30.486;2023-04-25T01:26:32;8.27;;;5.13;;
45252;SDS011;63171;50.520;30.486;2023-04-25T01:27:23;8.77;;;5.72;;
45252;SDS011;63171;50.520;30.486;2023-04-25T01:28:15;10.76;;;5.84;;
45252;SDS011;63171;50.520;30.486;2023-04-25T01:29:05;7.03;;;5.45;;
45252;SDS011;63171;50.520;30.486;2023-04-25T01:29:58;8.70;;;5.47;;
45252;SDS011;63171;50.520;30.486;2023-04-25T01:30:49;8.28;;;6.08;;
45252;SDS011;63171;50.520;30.486;2023-04-25T01:31:42;8.66;;;6.30;;
45252;SDS011;63171;50.520;30.486;2023-04-25T01:32:32;7.07;;;5.70;;
45252;SDS011;63171;50.520;30.486;2023-04-25T01:33:29;11.58;;;6.64;;
45252;SDS011;63171;50.520;30.486;2023-04-25T01:34:19;9.13;;;5.53;;
45252;SDS011;63171;50.520;30.486;2023-04-25T01:35:10;5.32;;;4.76;;
45252;SDS011;63171;50.520;30.486;2023-04-25T01:36:01;6.62;;;5.64;;
45252;SDS011;63171;50.520;30.486;2023-04-25T01:36:53;5.97;;;5.38;;
45252;SDS011;63171;50.520;30.486;2023-04-25T01:37:43;12.55;;;6.00;;
45252;SDS011;63171;50.520;30.486;2023-04-25T01:38:35;9.23;;;5.93;;
45252;SDS011;63171;50.520;30.486;2023-04-25T01:39:25;8.20;;;6.03;;
45252;SDS011;63171;50.520;30.486;2023-04-25T01:40:15;7.10;;;5.95;;
45252;SDS011;63171;50.520;30.486;2023-04-25T01:41:08;8.30;;;6.12;;
45252;SDS011;63171;50.520;30.486;2023-04-25T01:41:59;11.88;;;5.72;;
45252;SDS011;63171;50.520;30.486;2023-04-25T01:42:49;11.85;;;6.72;;
45252;SDS011;63171;50.520;30.486;2023-04-25T01:43:42;6.20;;;5.46;;
45252;SDS011;63171;50.520;30.486;2023-04-25T01:44:32;8.60;;;5.80;;
45252;SDS011;63171;50.520;30.486;2023-04-25T01:45:23;10.07;;;6.05;;
45252;SDS011;63171;50.520;30.486;2023-04-25T01:46:14;7.43;;;6.53;;
45252;SDS011;63171;50.520;30.486;2023-04-25T01:47:06;7.40;;;5.85;;
45252;SDS011;63171;50.520;30.486;2023-04-25T01:47:56;9.40;;;6.13;;
45252;SDS011;63171;50.520;30.486;2023-04-25T01:48:48;7.00;;;5.22;;
45252;SDS011;63171;50.520;30.486;2023-04-25T01:49:38;8.57;;;6.20;;
45252;SDS011;63171;50.520;30.486;2023-04-25T01:50:29;7.70;;;6.06;;
45252;SDS011;63171;50.520;30.486;2023-04-25T01:51:19;8.15;;;5.68;;
45252;SDS011;63171;50.520;30.486;2023-04-25T01:52:11;10.36;;;6.44;;
45252;SDS011;63171;50.520;30.486;2023-04-25T01:53:01;13.24;;;6.62;;
45252;SDS011;63171;50.520;30.486;2023-04-25T01:53:52;8.48;;;6.38;;
45252;SDS011;63171;50.520;30.486;2023-04-25T01:54:44;6.98;;;6.16;;
45252;SDS011;63171;50.520;30.486;2023-04-25T01:55:36;8.54;;;5.46;;
45252;SDS011;63171;50.520;30.486;2023-04-25T01:56:33;8.38;;;6.28;;
45252;SDS011;63171;50.520;30.486;2023-04-25T01:57:30;8.52;;;6.35;;
45252;SDS011;63171;50.520;30.486;2023-04-25T01:58:19;9.10;;;6.68;;
45252;SDS011;63171;50.520;30.486;2023-04-25T01:59:26;10.64;;;7.58;;
45252;SDS011;63171;50.520;30.486;2023-04-25T02:00:27;11.90;;;6.85;;
45252;SDS011;63171;50.520;30.486;2023-04-25T02:01:17;9.70;;;6.56;;
45252;SDS011;63171;50.520;30.486;2023-04-25T02:02:15;13.26;;;7.22;;
45252;SDS011;63171;50.520;30.486;2023-04-25T02:03:06;12.76;;;6.82;;
45252;SDS011;63171;50.520;30.486;2023-04-25T02:03:57;11.02;;;6.88;;
45252;SDS011;63171;50.520;30.486;2023-04-25T02:04:54;10.23;;;8.30;;
45252;SDS011;63171;50.520;30.486;2023-04-25T02:05:44;13.10;;;7.78;;
45252;SDS011;63171;50.520;30.486;2023-04-25T02:06:36;16.27;;;9.27;;
45252;SDS011;63171;50.520;30.486;2023-04-25T02:07:27;10.63;;;9.43;;
45252;SDS011;63171;50.520;30.486;2023-04-25T02:08:19;14.74;;;10.12;;
45252;SDS011;63171;50.520;30.486;2023-04-25T02:09:09;12.85;;;8.98;;
45252;SDS011;63171;50.520;30.486;2023-04-25T02:10:05;14.65;;;9.77;;
45252;SDS011;63171;50.520;30.486;2023-04-25T02:11:01;11.65;;;9.73;;
45252;SDS011;63171;50.520;30.486;2023-04-25T02:11:59;12.14;;;10.10;;
45252;SDS011;63171;50.520;30.486;2023-04-25T02:12:56;14.32;;;10.25;;
45252;SDS011;63171;50.520;30.486;2023-04-25T02:14:09;19.52;;;10.95;;
45252;SDS011;63171;50.520;30.486;2023-04-25T02:15:06;15.38;;;10.38;;
45252;SDS011;63171;50.520;30.486;2023-04-25T02:16:06;13.72;;;10.32;;
45252;SDS011;63171;50.520;30.486;2023-04-25T02:17:00;12.90;;;10.55;;
45252;SDS011;63171;50.520;30.486;2023-04-25T02:17:53;14.05;;;10.02;;
45252;SDS011;63171;50.520;30.486;2023-04-25T02:18:44;18.38;;;11.13;;
45252;SDS011;63171;50.520;30.486;2023-04-25T02:19:34;12.98;;;10.38;;
45252;SDS011;63171;50.520;30.486;2023-04-25T02:20:25;12.48;;;10.35;;
45252;SDS011;63171;50.520;30.486;2023-04-25T02:21:16;11.86;;;9.70;;
45252;SDS011;63171;50.520;30.486;2023-04-25T02:22:07;14.18;;;9.60;;
45252;SDS011;63171;50.520;30.486;2023-04-25T02:22:58;12.20;;;9.73;;
45252;SDS011;63171;50.520;30.486;2023-04-25T02:23:50;14.00;;;9.95;;
45252;SDS011;63171;50.520;30.486;2023-04-25T02:24:41;13.07;;;9.38;;
45252;SDS011;63171;50.520;30.486;2023-04-25T02:25:32;13.75;;;11.15;;
45252;SDS011;63171;50.520;30.486;2023-04-25T02:26:22;17.42;;;10.70;;
45252;SDS011;63171;50.520;30.486;2023-04-25T02:27:14;10.93;;;8.90;;
45252;SDS011;63171;50.520;30.486;2023-04-25T02:28:04;13.48;;;8.88;;
45252;SDS011;63171;50.520;30.486;2023-04-25T02:28:55;17.63;;;9.95;;
45252;SDS011;63171;50.520;30.486;2023-04-25T02:29:45;12.48;;;10.23;;
45252;SDS011;63171;50.520;30.486;2023-04-25T02:30:35;11.23;;;9.13;;
45252;SDS011;63171;50.520;30.486;2023-04-25T02:31:28;12.94;;;9.24;;
45252;SDS011;63171;50.520;30.486;2023-04-25T02:32:21;14.40;;;8.88;;
45252;SDS011;63171;50.520;30.486;2023-04-25T02:33:11;12.13;;;9.75;;
45252;SDS011;63171;50.520;30.486;2023-04-25T02:34:01;12.10;;;9.27;;
45252;SDS011;63171;50.520;30.486;2023-04-25T02:34:51;12.27;;;8.73;;
45252;SDS011;63171;50.520;30.486;2023-04-25T02:35:42;11.55;;;8.52;;
45252;SDS011;63171;50.520;30.486;2023-04-25T02:36:32;10.90;;;9.73;;
45252;SDS011;63171;50.520;30.486;2023-04-25T02:37:24;13.42;;;10.18;;
45252;SDS011;63171;50.520;30.486;2023-04-25T02:38:15;14.77;;;8.63;;
45252;SDS011;63171;50.520;30.486;2023-04-25T02:39:06;14.68;;;9.28;;
45252;SDS011;63171;50.520;30.486;2023-04-25T02:39:57;13.68;;;8.65;;
45252;SDS011;63171;50.520;30.486;2023-04-25T02:40:48;12.23;;;8.77;;
45252;SDS011;63171;50.520;30.486;2023-04-25T02:41:38;12.32;;;8.93;;
45252;SDS011;63171;50.520;30.486;2023-04-25T02:42:28;11.45;;;8.80;;
45252;SDS011;63171;50.520;30.486;2023-04-25T02:43:20;13.13;;;8.32;;
45252;SDS011;63171;50.520;30.486;2023-04-25T02:44:11;17.20;;;9.02;;
45252;SDS011;63171;50.520;30.486;2023-04-25T02:45:01;14.60;;;8.95;;
45252;SDS011;63171;50.520;30.486;2023-04-25T02:45:52;13.75;;;9.23;;
45252;SDS011;63171;50.520;30.486;2023-04-25T02:46:41;10.15;;;9.15;;
45252;SDS011;63171;50.520;30.486;2023-04-25T02:47:32;10.70;;;9.00;;
45252;SDS011;63171;50.520;30.486;2023-04-25T02:48:22;9.27;;;7.95;;
45252;SDS011;63171;50.520;30.486;2023-04-25T02:49:13;15.45;;;8.43;;
45252;SDS011;63171;50.520;30.486;2023-04-25T02:50:03;12.43;;;8.18;;
45252;SDS011;63171;50.520;30.486;2023-04-25T02:50:56;9.80;;;7.90;;
45252;SDS011;63171;50.520;30.486;2023-04-25T02:51:46;11.48;;;9.85;;
45252;SDS011;63171;50.520;30.486;2023-04-25T02:52:37;9.93;;;8.38;;
45252;SDS011;63171;50.520;30.486;2023-04-25T02:53:41;11.45;;;8.75;;
45252;SDS011;63171;50.520;30.486;2023-04-25T02:54:32;13.57;;;8.48;;
45252;SDS011;63171;50.520;30.486;2023-04-25T02:55:23;14.00;;;9.90;;
45252;SDS011;63171;50.520;30.486;2023-04-25T02:56:16;12.23;;;8.90;;
45252;SDS011;63171;50.520;30.486;2023-04-25T02:57:05;12.95;;;9.48;;
45252;SDS011;63171;50.520;30.486;2023-04-25T02:57:59;10.75;;;8.63;;
45252;SDS011;63171;50.520;30.486;2023-04-25T02:59:00;9.60;;;8.55;;
45252;SDS011;63171;50.520;30.486;2023-04-25T02:59:52;16.85;;;8.98;;
45252;SDS011;63171;50.520;30.486;2023-04-25T03:00:42;16.42;;;9.82;;
45252;SDS011;63171;50.520;30.486;2023-04-25T03:01:33;18.25;;;10.57;;
45252;SDS011;63171;50.520;30.486;2023-04-25T03:02:22;15.60;;;9.93;;
45252;SDS011;63171;50.520;30.486;2023-04-25T03:03:13;10.98;;;7.22;;
45252;SDS011;63171;50.520;30.486;2023-04-25T03:04:06;9.48;;;7.75;;
45252;SDS011;63171;50.520;30.486;2023-04-25T03:04:57;11.32;;;8.45;;
45252;SDS011;63171;50.520;30.486;2023-04-25T03:05:47;14.65;;;8.77;;
45252;SDS011;63171;50.520;30.486;2023-04-25T03:06:41;10.38;;;7.93;;
45252;SDS011;63171;50.520;30.486;2023-04-25T03:07:31;10.27;;;8.32;;
45252;SDS011;63171;50.520;30.486;2023-04-25T03:08:22;13.82;;;8.45;;
45252;SDS011;63171;50.520;30.486;2023-04-25T03:09:13;11.63;;;8.55;;
45252;SDS011;63171;50.520;30.486;2023-04-25T03:10:05;9.13;;;7.72;;
45252;SDS011;63171;50.520;30.486;2023-04-25T03:10:56;12.55;;;8.10;;
45252;SDS011;63171;50.520;30.486;2023-04-25T03:11:47;11.38;;;8.32;;
45252;SDS011;63171;50.520;30.486;2023-04-25T03:12:38;20.42;;;8.73;;
45252;SDS011;63171;50.520;30.486;2023-04-25T03:13:28;10.88;;;8.75;;
45252;SDS011;63171;50.520;30.486;2023-04-25T03:14:19;10.63;;;8.32;;
45252;SDS011;63171;50.520;30.486;2023-04-25T03:15:10;12.65;;;9.43;;
45252;SDS011;63171;50.520;30.486;2023-04-25T03:16:00;11.90;;;8.60;;
45252;SDS011;63171;50.520;30.486;2023-04-25T03:16:52;13.60;;;10.02;;
45252;SDS011;63171;50.520;30.486;2023-04-25T03:17:42;10.68;;;7.78;;
45252;SDS011;63171;50.520;30.486;2023-04-25T03:18:33;12.95;;;8.40;;
45252;SDS011;63171;50.520;30.486;2023-04-25T03:19:23;10.90;;;8.57;;
45252;SDS011;63171;50.520;30.486;2023-04-25T03:20:13;14.30;;;9.20;;
45252;SDS011;63171;50.520;30.486;2023-04-25T03:21:04;11.18;;;8.20;;
45252;SDS011;63171;50.520;30.486;2023-04-25T03:21:55;12.02;;;8.12;;
45252;SDS011;63171;50.520;30.486;2023-04-25T03:22:45;9.88;;;7.60;;
45252;SDS011;63171;50.520;30.486;2023-04-25T03:23:36;15.98;;;8.13;;
45252;SDS011;63171;50.520;30.486;2023-04-25T03:24:27;9.52;;;8.57;;
45252;SDS011;63171;50.520;30.486;2023-04-25T03:25:17;12.93;;;8.07;;
45252;SDS011;63171;50.520;30.486;2023-04-25T03:26:08;10.64;;;9.18;;
45252;SDS011;63171;50.520;30.486;2023-04-25T03:26:59;12.95;;;8.93;;
45252;SDS011;63171;50.520;30.486;2023-04-25T03:27:49;13.18;;;8.48;;
45252;SDS011;63171;50.520;30.486;2023-04-25T03:28:40;11.40;;;8.95;;
45252;SDS011;63171;50.520;30.486;2023-04-25T03:29:31;11.68;;;8.44;;
45252;SDS011;63171;50.520;30.486;2023-04-25T03:30:25;10.68;;;9.50;;
45252;SDS011;63171;50.520;30.486;2023-04-25T03:31:15;12.38;;;8.65;;
45252;SDS011;63171;50.520;30.486;2023-04-25T03:32:06;14.55;;;8.80;;
45252;SDS011;63171;50.520;30.486;2023-04-25T03:32:56;10.05;;;7.65;;
45252;SDS011;63171;50.520;30.486;2023-04-25T03:33:47;12.32;;;9.06;;
45252;SDS011;63171;50.520;30.486;2023-04-25T03:34:36;9.55;;;7.40;;
45252;SDS011;63171;50.520;30.486;2023-04-25T03:35:27;12.34;;;7.96;;
45252;SDS011;63171;50.520;30.486;2023-04-25T03:36:17;15.10;;;8.73;;
45252;SDS011;63171;50.520;30.486;2023-04-25T03:37:08;14.34;;;9.12;;
45252;SDS011;63171;50.520;30.486;2023-04-25T03:38:00;9.88;;;7.48;;
45252;SDS011;63171;50.520;30.486;2023-04-25T03:38:56;9.16;;;7.02;;
45252;SDS011;63171;50.520;30.486;2023-04-25T03:39:47;7.82;;;7.00;;
45252;SDS011;63171;50.520;30.486;2023-04-25T03:40:39;10.04;;;8.36;;
45252;SDS011;63171;50.520;30.486;2023-04-25T03:41:40;12.18;;;9.04;;
45252;SDS011;63171;50.520;30.486;2023-04-25T03:42:36;15.48;;;8.92;;
45252;SDS011;63171;50.520;30.486;2023-04-25T03:43:26;16.38;;;9.93;;
45252;SDS011;63171;50.520;30.486;2023-04-25T03:44:23;17.90;;;9.36;;
45252;SDS011;63171;50.520;30.486;2023-04-25T03:45:13;11.80;;;7.94;;
45252;SDS011;63171;50.520;30.486;2023-04-25T03:46:04;12.80;;;8.28;;
45252;SDS011;63171;50.520;30.486;2023-04-25T03:46:54;12.55;;;7.38;;
45252;SDS011;63171;50.520;30.486;2023-04-25T03:47:46;15.80;;;8.48;;
45252;SDS011;63171;50.520;30.486;2023-04-25T03:48:36;16.38;;;9.35;;
45252;SDS011;63171;50.520;30.486;2023-04-25T03:49:27;10.40;;;8.07;;
45252;SDS011;63171;50.520;30.486;2023-04-25T03:50:21;12.36;;;7.32;;
45252;SDS011;63171;50.520;30.486;2023-04-25T03:51:12;10.76;;;7.20;;
45252;SDS011;63171;50.520;30.486;2023-04-25T03:52:05;11.92;;;7.74;;
45252;SDS011;63171;50.520;30.486;2023-04-25T03:52:59;12.76;;;8.02;;
45252;SDS011;63171;50.520;30.486;2023-04-25T03:53:52;10.24;;;7.94;;
45252;SDS011;63171;50.520;30.486;2023-04-25T03:55:04;10.85;;;8.57;;
45252;SDS011;63171;50.520;30.486;2023-04-25T03:55:56;11.04;;;7.80;;
45252;SDS011;63171;50.520;30.486;2023-04-25T03:56:45;12.38;;;8.55;;
45252;SDS011;63171;50.520;30.486;2023-04-25T03:57:42;13.92;;;9.74;;
45252;SDS011;63171;50.520;30.486;2023-04-25T03:58:32;9.77;;;8.35;;
45252;SDS011;63171;50.520;30.486;2023-04-25T03:59:23;12.62;;;7.82;;
45252;SDS011;63171;50.520;30.486;2023-04-25T04:00:14;9.02;;;7.12;;
45252;SDS011;63171;50.520;30.486;2023-04-25T04:01:05;12.62;;;8.40;;
45252;SDS011;63171;50.520;30.486;2023-04-25T04:01:59;11.14;;;8.60;;
45252;SDS011;63171;50.520;30.486;2023-04-25T04:02:51;12.44;;;7.92;;
45252;SDS011;63171;50.520;30.486;2023-04-25T04:03:41;15.25;;;9.65;;
45252;SDS011;63171;50.520;30.486;2023-04-25T04:04:33;17.72;;;9.12;;
45252;SDS011;63171;50.520;30.486;2023-04-25T04:05:23;14.84;;;9.52;;
45252;SDS011;63171;50.520;30.486;2023-04-25T04:06:17;13.20;;;9.24;;
45252;SDS011;63171;50.520;30.486;2023-04-25T04:07:13;24.08;;;9.98;;
45252;SDS011;63171;50.520;30.486;2023-04-25T04:08:07;16.22;;;9.22;;
45252;SDS011;63171;50.520;30.486;2023-04-25T04:08:57;15.52;;;10.20;;
45252;SDS011;63171;50.520;30.486;2023-04-25T04:09:48;17.46;;;10.10;;
45252;SDS011;63171;50.520;30.486;2023-04-25T04:10:47;18.44;;;10.48;;
45252;SDS011;63171;50.520;30.486;2023-04-25T04:11:38;16.36;;;9.56;;
45252;SDS011;63171;50.520;30.486;2023-04-25T04:12:28;12.07;;;9.95;;
45252;SDS011;63171;50.520;30.486;2023-04-25T04:13:19;16.74;;;8.66;;
45252;SDS011;63171;50.520;30.486;2023-04-25T04:14:09;16.60;;;9.77;;
45252;SDS011;63171;50.520;30.486;2023-04-25T04:15:03;16.00;;;9.48;;
45252;SDS011;63171;50.520;30.486;2023-04-25T04:15:54;13.78;;;10.14;;
45252;SDS011;63171;50.520;30.486;2023-04-25T04:16:46;19.68;;;10.60;;
45252;SDS011;63171;50.520;30.486;2023-04-25T04:17:36;18.55;;;10.95;;
45252;SDS011;63171;50.520;30.486;2023-04-25T04:18:27;17.24;;;11.08;;
45252;SDS011;63171;50.520;30.486;2023-04-25T04:19:19;19.06;;;11.70;;
45252;SDS011;63171;50.520;30.486;2023-04-25T04:20:17;17.20;;;10.72;;
45252;SDS011;63171;50.520;30.486;2023-04-25T04:21:07;25.02;;;11.57;;
45252;SDS011;63171;50.520;30.486;2023-04-25T04:22:01;35.80;;;10.50;;
45252;SDS011;63171;50.520;30.486;2023-04-25T04:22:51;21.17;;;11.23;;
45252;SDS011;63171;50.520;30.486;2023-04-25T04:23:42;15.92;;;10.52;;
45252;SDS011;63171;50.520;30.486;2023-04-25T04:24:33;20.36;;;11.22;;
45252;SDS011;63171;50.520;30.486;2023-04-25T04:25:27;17.18;;;9.86;;
45252;SDS011;63171;50.520;30.486;2023-04-25T04:26:48;15.78;;;10.66;;
45252;SDS011;63171;50.520;30.486;2023-04-25T04:27:56;24.65;;;11.35;;
45252;SDS011;63171;50.520;30.486;2023-04-25T04:28:56;27.67;;;11.15;;
45252;SDS011;63171;50.520;30.486;2023-04-25T04:30:09;15.08;;;9.88;;
45252;SDS011;63171;50.520;30.486;2023-04-25T04:31:08;14.52;;;9.95;;
45252;SDS011;63171;50.520;30.486;2023-04-25T04:31:59;23.62;;;11.80;;
45252;SDS011;63171;50.520;30.486;2023-04-25T04:32:51;18.32;;;10.78;;
45252;SDS011;63171;50.520;30.486;2023-04-25T04:33:42;12.88;;;9.42;;
45252;SDS011;63171;50.520;30.486;2023-04-25T04:34:33;20.62;;;9.94;;
45252;SDS011;63171;50.520;30.486;2023-04-25T04:35:25;18.32;;;10.16;;
45252;SDS011;63171;50.520;30.486;2023-04-25T04:36:15;17.63;;;10.25;;
45252;SDS011;63171;50.520;30.486;2023-04-25T04:37:09;16.16;;;9.74;;
45252;SDS011;63171;50.520;30.486;2023-04-25T04:37:59;16.08;;;9.85;;
45252;SDS011;63171;50.520;30.486;2023-04-25T04:38:54;14.30;;;9.26;;
45252;SDS011;63171;50.520;30.486;2023-04-25T04:40:06;12.80;;;9.42;;
45252;SDS011;63171;50.520;30.486;2023-04-25T04:41:05;10.30;;;8.23;;
45252;SDS011;63171;50.520;30.486;2023-04-25T04:42:08;10.34;;;7.42;;
45252;SDS011;63171;50.520;30.486;2023-04-25T04:43:38;11.22;;;7.78;;
45252;SDS011;63171;50.520;30.486;2023-04-25T04:44:48;8.80;;;7.57;;
45252;SDS011;63171;50.520;30.486;2023-04-25T04:45:58;16.15;;;8.50;;
45252;SDS011;63171;50.520;30.486;2023-04-25T04:47:56;15.04;;;10.08;;
45252;SDS011;63171;50.520;30.486;2023-04-25T04:49:17;13.84;;;9.04;;
45252;SDS011;63171;50.520;30.486;2023-04-25T04:50:37;13.95;;;9.00;;
45252;SDS011;63171;50.520;30.486;2023-04-25T04:51:48;11.00;;;9.02;;
45252;SDS011;63171;50.520;30.486;2023-04-25T04:52:57;12.60;;;9.13;;
45252;SDS011;63171;50.520;30.486;2023-04-25T04:54:06;10.82;;;8.52;;
45252;SDS011;63171;50.520;30.486;2023-04-25T04:55:08;13.92;;;8.94;;
45252;SDS011;63171;50.520;30.486;2023-04-25T04:56:24;18.92;;;9.18;;
45252;SDS011;63171;50.520;30.486;2023-04-25T04:57:16;13.25;;;9.25;;
45252;SDS011;63171;50.520;30.486;2023-04-25T04:58:36;14.80;;;8.80;;
45252;SDS011;63171;50.520;30.486;2023-04-25T04:59:46;18.77;;;9.35;;
45252;SDS011;63171;50.520;30.486;2023-04-25T05:00:55;15.63;;;10.10;;
45252;SDS011;63171;50.520;30.486;2023-04-25T05:02:17;17.13;;;9.77;;
45252;SDS011;63171;50.520;30.486;2023-04-25T05:03:30;16.38;;;9.23;;
45252;SDS011;63171;50.520;30.486;2023-04-25T05:04:33;23.23;;;9.65;;
45252;SDS011;63171;50.520;30.486;2023-04-25T05:05:28;14.57;;;8.65;;
45252;SDS011;63171;50.520;30.486;2023-04-25T05:06:36;18.27;;;10.35;;
45252;SDS011;63171;50.520;30.486;2023-04-25T05:07:59;17.75;;;9.35;;
45252;SDS011;63171;50.520;30.486;2023-04-25T05:09:10;12.68;;;9.05;;
45252;SDS011;63171;50.520;30.486;2023-04-25T05:10:26;12.05;;;8.85;;
45252;SDS011;63171;50.520;30.486;2023-04-25T05:11:43;17.67;;;9.07;;
45252;SDS011;63171;50.520;30.486;2023-04-25T05:12:43;11.65;;;8.00;;
45252;SDS011;63171;50.520;30.486;2023-04-25T05:13:40;13.23;;;8.75;;
45252;SDS011;63171;50.520;30.486;2023-04-25T05:15:02;18.65;;;8.60;;
45252;SDS011;63171;50.520;30.486;2023-04-25T05:15:53;14.63;;;8.00;;
45252;SDS011;63171;50.520;30.486;2023-04-25T05:16:51;19.05;;;7.32;;
45252;SDS011;63171;50.520;30.486;2023-04-25T05:17:48;13.43;;;7.68;;
45252;SDS011;63171;50.520;30.486;2023-04-25T05:18:45;12.02;;;7.47;;
45252;SDS011;63171;50.520;30.486;2023-04-25T05:20:11;12.63;;;6.85;;
45252;SDS011;63171;50.520;30.486;2023-04-25T05:21:23;9.93;;;7.03;;